^^
Meteo Knjazevac Station Historical Data
Daily Summary for February 9, 2021 Units:  Both    English   Metric
Daily Weekly Monthly Yearly Custom
  High: Low: Average:
Temperature: 59.7 °F /  15.4 °C 52.7 °F /  11.5 °C 55.1 °F /  12.8 °C
Dew Point: 58.3 °F /  14.6 °C 51.6 °F /  10.9 °C 53.8 °F /  12.1 °C
Humidity: 99% 91% 96%
Wind Speed: 3mph /  4.8km/h - 1.2mph /  1.9km/h
Wind Gust: 6mph /  9.7km/h - -
Wind- - West
Pressure: 30.07 in /  1018.2 hPa 30.05 in /  1017.5 hPa -
Precipitation: 0.00 in /  0 mm    
Historical Graphs
 
 
Tabular Data for February 9, 2021
Time Temperature Dew Point Pressure Wind Wind Speed Wind Gust Humidity Rainfall Rate (Hourly) solar Conditions
00:00 57.4 °F /  14.1 °C 54.8 °F /  12.7 °C 30.07in /  1018.2hPa West 2mph /  3.2km/h 5mph /  8km/h 91% 0.00in /  0mm 0 W/m2
00:10 57.1 °F /  13.9 °C 54.5 °F /  12.5 °C 30.07in /  1018.2hPa West 3mph /  4.8km/h 6mph /  9.7km/h 91% 0.00in /  0mm 0 W/m2
00:20 56.8 °F /  13.8 °C 54.2 °F /  12.3 °C 30.07in /  1018.2hPa WSW 2mph /  3.2km/h 5mph /  8km/h 91% 0.00in /  0mm 0 W/m2
00:30 56.3 °F /  13.5 °C 53.7 °F /  12.1 °C 30.07in /  1018.2hPa WSW 2mph /  3.2km/h 5mph /  8km/h 91% 0.00in /  0mm 0 W/m2
00:40 55.9 °F /  13.3 °C 53.9 °F /  12.2 °C 30.07in /  1018.2hPa West 3mph /  4.8km/h 5mph /  8km/h 93% 0.00in /  0mm 0 W/m2
00:50 55.8 °F /  13.2 °C 54.1 °F /  12.3 °C 30.06in /  1017.8hPa WNW 3mph /  4.8km/h 6mph /  9.7km/h 94% 0.00in /  0mm 0 W/m2
01:00 55.9 °F /  13.3 °C 54.2 °F /  12.3 °C 30.06in /  1017.8hPa WNW 2mph /  3.2km/h 5mph /  8km/h 94% 0.00in /  0mm 0 W/m2
01:10 55.9 °F /  13.3 °C 54.2 °F /  12.3 °C 30.06in /  1017.8hPa West 2mph /  3.2km/h 4mph /  6.4km/h 94% 0.00in /  0mm 0 W/m2
01:20 55.9 °F /  13.3 °C 54.2 °F /  12.3 °C 30.06in /  1017.8hPa WSW 1mph /  1.6km/h 3mph /  4.8km/h 94% 0.00in /  0mm 0 W/m2
01:30 55.6 °F /  13.1 °C 53.9 °F /  12.2 °C 30.06in /  1017.8hPa SW 2mph /  3.2km/h 3mph /  4.8km/h 94% 0.00in /  0mm 0 W/m2
01:40 55.6 °F /  13.1 °C 53.9 °F /  12.2 °C 30.06in /  1017.8hPa WSW 3mph /  4.8km/h 5mph /  8km/h 94% 0.00in /  0mm 0 W/m2
01:50 55.6 °F /  13.1 °C 54.2 °F /  12.3 °C 30.06in /  1017.8hPa West 3mph /  4.8km/h 5mph /  8km/h 95% 0.00in /  0mm 0 W/m2
02:00 55.6 °F /  13.1 °C 54.2 °F /  12.3 °C 30.06in /  1017.8hPa Calm   4mph /  6.4km/h 95% 0.00in /  0mm 0 W/m2
02:10 55.8 °F /  13.2 °C 54.3 °F /  12.4 °C 30.06in /  1017.8hPa SW 1mph /  1.6km/h 2mph /  3.2km/h 95% 0.00in /  0mm 0 W/m2
02:20 55.6 °F /  13.1 °C 54.2 °F /  12.3 °C 30.06in /  1017.8hPa WSW 1mph /  1.6km/h 2mph /  3.2km/h 95% 0.00in /  0mm 0 W/m2
02:30 55.4 °F /  13 °C 54 °F /  12.2 °C 30.06in /  1017.8hPa WNW 1mph /  1.6km/h 2mph /  3.2km/h 95% 0.00in /  0mm 0 W/m2
02:40 55.4 °F /  13 °C 54 °F /  12.2 °C 30.06in /  1017.8hPa Calm   3mph /  4.8km/h 95% 0.00in /  0mm 0 W/m2
02:50 55.4 °F /  13 °C 54 °F /  12.2 °C 30.06in /  1017.8hPa WNW 1mph /  1.6km/h 2mph /  3.2km/h 95% 0.00in /  0mm 0 W/m2
03:00 55.2 °F /  12.9 °C 53.8 °F /  12.1 °C 30.06in /  1017.8hPa Calm   2mph /  3.2km/h 95% 0.00in /  0mm 0 W/m2
03:10 55 °F /  12.8 °C 53.6 °F /  12 °C 30.06in /  1017.8hPa Calm   1mph /  1.6km/h 95% 0.00in /  0mm 0 W/m2
03:20 55 °F /  12.8 °C 53.6 °F /  12 °C 30.06in /  1017.8hPa Calm   1mph /  1.6km/h 95% 0.00in /  0mm 0 W/m2
03:30 55 °F /  12.8 °C 53.6 °F /  12 °C 30.06in /  1017.8hPa Calm   1mph /  1.6km/h 95% 0.00in /  0mm 0 W/m2
03:40 54.9 °F /  12.7 °C 53.2 °F /  11.8 °C 30.05in /  1017.5hPa West 1mph /  1.6km/h 2mph /  3.2km/h 94% 0.00in /  0mm 0 W/m2
03:50 54.3 °F /  12.4 °C 52.6 °F /  11.4 °C 30.05in /  1017.5hPa Calm   2mph /  3.2km/h 94% 0.00in /  0mm 0 W/m2
04:00 54 °F /  12.2 °C 52.6 °F /  11.4 °C 30.06in /  1017.8hPa West 2mph /  3.2km/h 3mph /  4.8km/h 95% 0.00in /  0mm 0 W/m2
04:10 53.8 °F /  12.1 °C 52.4 °F /  11.3 °C 30.05in /  1017.5hPa West 2mph /  3.2km/h 4mph /  6.4km/h 95% 0.00in /  0mm 0 W/m2
04:20 53.8 °F /  12.1 °C 52.7 °F /  11.5 °C 30.06in /  1017.8hPa NW 1mph /  1.6km/h 3mph /  4.8km/h 96% 0.00in /  0mm 0 W/m2
04:30 53.4 °F /  11.9 °C 52.3 °F /  11.3 °C 30.05in /  1017.5hPa Calm   3mph /  4.8km/h 96% 0.00in /  0mm 0 W/m2
04:40 53.4 °F /  11.9 °C 52.3 °F /  11.3 °C 30.05in /  1017.5hPa WSW 1mph /  1.6km/h 2mph /  3.2km/h 96% 0.00in /  0mm 0 W/m2
04:50 53.1 °F /  11.7 °C 52 °F /  11.1 °C 30.06in /  1017.8hPa SW 1mph /  1.6km/h 2mph /  3.2km/h 96% 0.00in /  0mm 3 W/m2
05:00 52.9 °F /  11.6 °C 51.8 °F /  11 °C 30.06in /  1017.8hPa West 1mph /  1.6km/h 2mph /  3.2km/h 96% 0.00in /  0mm 7 W/m2
05:10 53.1 °F /  11.7 °C 52.5 °F /  11.4 °C 30.06in /  1017.8hPa West 2mph /  3.2km/h 5mph /  8km/h 98% 0.00in /  0mm 14 W/m2
05:20 53.1 °F /  11.7 °C 52.5 °F /  11.4 °C 30.06in /  1017.8hPa WNW 1mph /  1.6km/h 3mph /  4.8km/h 98% 0.00in /  0mm 24 W/m2
05:30 52.9 °F /  11.6 °C 51.8 °F /  11 °C 30.06in /  1017.8hPa Calm   2mph /  3.2km/h 96% 0.00in /  0mm 35 W/m2
05:40 52.9 °F /  11.6 °C 51.8 °F /  11 °C 30.06in /  1017.8hPa West 1mph /  1.6km/h 2mph /  3.2km/h 96% 0.00in /  0mm 47 W/m2
05:50 52.7 °F /  11.5 °C 51.6 °F /  10.9 °C 30.07in /  1018.2hPa West 1mph /  1.6km/h 2mph /  3.2km/h 96% 0.00in /  0mm 51 W/m2
06:00 52.9 °F /  11.6 °C 52.3 °F /  11.3 °C 30.06in /  1017.8hPa Calm   2mph /  3.2km/h 98% 0.00in /  0mm 60 W/m2
06:10 53.1 °F /  11.7 °C 52.5 °F /  11.4 °C 30.07in /  1018.2hPa Calm   2mph /  3.2km/h 98% 0.00in /  0mm 116 W/m2
06:20 53.4 °F /  11.9 °C 52.9 °F /  11.6 °C 30.07in /  1018.2hPa Calm   2mph /  3.2km/h 98% 0.00in /  0mm 141 W/m2
06:30 53.6 °F /  12 °C 53 °F /  11.7 °C 30.07in /  1018.2hPa WNW 1mph /  1.6km/h 2mph /  3.2km/h 98% 0.00in /  0mm 162 W/m2
06:40 54 °F /  12.2 °C 53.7 °F /  12.1 °C 30.06in /  1017.8hPa NW 1mph /  1.6km/h 2mph /  3.2km/h 99% 0.00in /  0mm 192 W/m2
06:50 54.5 °F /  12.5 °C 54.2 °F /  12.3 °C 30.06in /  1017.8hPa West 2mph /  3.2km/h 4mph /  6.4km/h 99% 0.00in /  0mm 224 W/m2
07:00 55 °F /  12.8 °C 54.8 °F /  12.7 °C 30.06in /  1017.8hPa NW 1mph /  1.6km/h 3mph /  4.8km/h 99% 0.00in /  0mm 256 W/m2
07:10 55.6 °F /  13.1 °C 55.3 °F /  12.9 °C 30.06in /  1017.8hPa Calm   2mph /  3.2km/h 99% 0.00in /  0mm 286 W/m2
07:20 56.3 °F /  13.5 °C 56 °F /  13.3 °C 30.06in /  1017.8hPa West 2mph /  3.2km/h 2mph /  3.2km/h 99% 0.00in /  0mm 317 W/m2
07:30 57.2 °F /  14 °C 56.9 °F /  13.8 °C 30.06in /  1017.8hPa WSW 1mph /  1.6km/h 3mph /  4.8km/h 99% 0.00in /  0mm 356 W/m2
07:40 57.9 °F /  14.4 °C 57.4 °F /  14.1 °C 30.06in /  1017.8hPa West 2mph /  3.2km/h 5mph /  8km/h 98% 0.00in /  0mm 393 W/m2
07:50 58.8 °F /  14.9 °C 57.4 °F /  14.1 °C 30.06in /  1017.8hPa West 1mph /  1.6km/h 5mph /  8km/h 95% 0.00in /  0mm 425 W/m2
08:00 59.7 °F /  15.4 °C 58.3 °F /  14.6 °C 30.06in /  1017.8hPa WSW 2mph /  3.2km/h 4mph /  6.4km/h 95% 0.00in /  0mm 459 W/m2
Knjazevac, Serbia
Compliments of Weather Underground - 2 mb